Flight Track Log - Related Links

Times and Time Zones

All times are in EDT time to prevent confusion due to time zone crossing. See the SWA149 flight status page for this flight to view local times or setup timezone preferences in your user account.

Time Position Orientation Groundspeed Altitude Reporting Facility
EDT Latitude Longitude Course Direction KTS MPH feet Rate Location/Type
Thu 09:27:56 AM 47.4353 -122.3103 178° South 161 185 1,100  Level Seattle Center
Thu 09:28:56 AM 47.3858 -122.3081 178° South 181 208 2,900 1,899 Climbing Seattle Center
Thu 09:29:15 AM 47.3694 -122.3094 183° South 194 223 3,600 2,400 Climbing Seattle Center
Thu 09:30:16 AM 47.3008 -122.3094 180° South 248 285 6,100 2,951 Climbing Seattle Center
Thu 09:31:17 AM 47.2253 -122.3022 176° South 277 319 9,600 2,678 Climbing Seattle Center
Thu 09:32:17 AM 47.1447 -122.2594 160° South 313 360 11,500 2,479 Climbing Seattle Center
Thu 09:33:18 AM 47.0525 -122.2108 160° South 349 402 14,600 2,607 Climbing Seattle Center
Thu 09:34:19 AM 46.9544 -122.1606 161° South 373 429 16,800 2,410 Climbing Seattle Center
Thu 09:35:20 AM 46.8461 -122.1067 161° South 385 443 19,500 2,331 Climbing Seattle Center
Thu 09:36:20 AM 46.7406 -122.0519 160° South 402 463 21,500 1,934 Climbing Seattle Center
Thu 09:37:21 AM 46.6317 -121.9975 161° South 411 473 23,400 1,820 Climbing Seattle Center
Thu 09:38:22 AM 46.5169 -121.9500 164° South 424 488 25,200 1,835 Climbing Seattle Center
Thu 09:39:22 AM 46.4006 -121.9047 165° South 429 494 27,100 1,686 Climbing Seattle Center
Thu 09:40:23 AM 46.2828 -121.8583 165° South 437 503 28,600 1,426 Climbing Seattle Center
Thu 09:41:24 AM 46.1528 -121.8100 166° South 443 510 30,000 1,377 Climbing Seattle Center
Thu 09:42:25 AM 46.0300 -121.7619 165° South 455 524 31,400 1,240 Climbing Seattle Center
Thu 09:43:25 AM 45.9061 -121.7153 165° South 455 524 32,500 1,190 Climbing Seattle Center
Thu 09:44:26 AM 45.7808 -121.6697 166° South 461 531 33,800 1,328 Climbing Seattle Center
Thu 09:45:27 AM 45.6550 -121.6239 166° South 461 531 35,200 1,289 Climbing Seattle Center
Thu 09:46:27 AM 45.5347 -121.5772 165° South 459 528 36,400 893 Climbing Seattle Center
Thu 09:47:28 AM 45.4147 -121.5317 165° South 452 520 37,000 295 Climbing Seattle Center
Thu 09:48:29 AM 45.2931 -121.4875 166° South 452 520 37,000  Level Seattle Center
Thu 09:49:30 AM 45.1711 -121.4419 165° South 453 521 37,000  Level Seattle Center
Thu 09:50:30 AM 45.0472 -121.3969 166° South 457 526 37,000  Level Seattle Center
Thu 09:51:31 AM 44.9258 -121.3528 166° South 457 526 37,000  Level Seattle Center
Thu 09:52:32 AM 44.8050 -121.3103 166° South 453 521 37,000  Level Seattle Center
Thu 09:53:33 AM 44.6831 -121.2650 165° South 453 521 37,000  Level Seattle Center
Thu 09:54:34 AM 44.5614 -121.2225 166° South 452 520 37,000  Level Seattle Center
Thu 09:55:35 AM 44.4167 -121.1706 166° South 450 518 37,000  Level Seattle Center
Thu 09:56:35 AM 44.2986 -121.1283 166° South 451 519 37,000  Level Seattle Center
Thu 09:57:36 AM 44.1750 -121.0828 165° South 458 527 37,000  Level Seattle Center
Thu 09:58:37 AM 44.0511 -121.0375 165° South 461 531 37,000  Level Seattle Center
Thu 09:59:38 AM 43.9303 -120.9883 164° South 458 527 37,000  Level Seattle Center
Thu 10:00:39 AM 43.8086 -120.9414 164° South 458 527 37,000  Level Seattle Center
Thu 10:01:39 AM 43.6872 -120.8944 164° South 457 526 37,000  Level Seattle Center
Thu 10:02:40 AM 43.5519 -120.8411 164° South 459 528 37,000  Level Seattle Center
Thu 10:03:41 AM 43.4306 -120.7961 165° South 457 526 37,000  Level Seattle Center
Thu 10:04:42 AM 43.3086 -120.7469 164° South 456 525 37,000  Level Seattle Center
Thu 10:05:43 AM 43.1869 -120.7028 165° South 456 525 37,000  Level Seattle Center
Thu 10:06:44 AM 43.0686 -120.6569 164° South 447 514 37,000  Level Seattle Center
Thu 10:07:45 AM 42.9481 -120.6125 165° South 445 512 37,000  Level Seattle Center
Thu 10:08:45 AM 42.8275 -120.5656 164° South 446 513 37,000  Level Seattle Center
Thu 10:09:46 AM 42.7081 -120.5208 165° South 446 513 37,000  Level Seattle Center
Thu 10:10:47 AM 42.5861 -120.4750 165° South 449 517 37,000  Level Seattle Center
Thu 10:11:48 AM 42.4658 -120.4286 164° South 449 517 37,000  Level Seattle Center
Thu 10:12:49 AM 42.3447 -120.3858 165° South 449 517 37,000  Level Seattle Center
Thu 10:13:50 AM 42.2253 -120.3408 164° South 448 516 37,000  Level Seattle Center
Thu 10:14:51 AM 42.1014 -120.2939 164° South 455 524 37,000  Level Seattle Center
Thu 10:15:51 AM 41.9786 -120.2489 165° South 455 524 37,000  Level Seattle Center
Thu 10:16:52 AM 41.8342 -120.1950 164° South 454 522 37,000  Level Seattle Center
Thu 10:17:53 AM 41.7108 -120.1500 165° South 456 525 37,000  Level Seattle Center
Thu 10:18:54 AM 41.5842 -120.1058 165° South 465 535 37,000  Level Seattle Center
Thu 10:19:55 AM 41.4617 -120.0606 165° South 461 531 37,000  Level Seattle Center
Thu 10:20:56 AM 41.3406 -120.0144 164° South 458 527 37,000  Level Seattle Center
Thu 10:21:57 AM 41.2194 -119.9708 165° South 450 518 37,000  Level Seattle Center
Thu 10:22:58 AM 41.0950 -119.9283 166° South 460 529 37,000  Level Seattle Center
Thu 10:23:59 AM 40.9728 -119.8858 165° South 459 528 37,000  Level Seattle Center
Thu 10:25:00 AM 40.8522 -119.8408 164° South 453 521 37,000  Level Seattle Center
Thu 10:26:01 AM 40.7294 -119.7989 165° South 452 520 37,000  Level Seattle Center
Thu 10:27:02 AM 40.5972 -119.7511 165° South 450 518 37,000  Level Seattle Center
Thu 10:28:03 AM 40.4758 -119.7086 165° South 450 518 37,000  Level Seattle Center
Thu 10:29:04 AM 40.3561 -119.6656 165° South 449 517 37,000  Level Seattle Center
Thu 10:30:05 AM 40.2347 -119.6244 166° South 449 517 37,000  Level Seattle Center
Thu 10:31:06 AM 40.1131 -119.5828 165° South 451 519 37,000  Level Seattle Center
Thu 10:32:29 AM 39.9431 -119.5219 165° South 452 520 37,000  Level Oakland Center
Thu 10:33:30 AM 39.8211 -119.4800 165° South 453 521 37,000  Level Oakland Center
Thu 10:34:31 AM 39.7003 -119.4397 166° South 453 521 37,000  Level Oakland Center
Thu 10:35:33 AM 39.5789 -119.3981 165° South 453 521 37,000  Level Oakland Center
Thu 10:36:34 AM 39.4333 -119.3475 165° South 453 521 37,000  Level Oakland Center
Thu 10:37:36 AM 39.3122 -119.3061 165° South 453 521 37,000  Level Oakland Center
Thu 10:38:37 AM 39.1986 -119.2422 156° South 455 524 37,000  Level Oakland Center
Thu 10:39:39 AM 39.1017 -119.1375 140° Southeast 459 528 37,000  Level Oakland Center
Thu 10:40:40 AM 39.0056 -119.0322 140° Southeast 459 528 37,000  Level Oakland Center
Thu 10:41:42 AM 38.9086 -118.9281 140° Southeast 459 528 37,000  Level Oakland Center
Thu 10:42:43 AM 38.7903 -118.8017 140° Southeast 460 529 37,000  Level Oakland Center
Thu 10:43:44 AM 38.6908 -118.6947 140° Southeast 465 535 37,000  Level Oakland Center
Thu 10:44:46 AM 38.5914 -118.5883 140° Southeast 466 536 37,000  Level Oakland Center
Thu 10:45:47 AM 38.4906 -118.4817 140° Southeast 467 537 37,000  Level Oakland Center
Thu 10:46:49 AM 38.3900 -118.3756 140° Southeast 471 542 37,000  Level Oakland Center
Thu 10:47:50 AM 38.2889 -118.2694 141° Southeast 472 543 37,000  Level Oakland Center
Thu 10:48:52 AM 38.1881 -118.1631 140° Southeast 471 542 37,000  Level Oakland Center
Thu 10:49:53 AM 38.0775 -118.0483 141° Southeast 472 543 37,000  Level Oakland Center
Thu 10:50:54 AM 37.9783 -117.9439 140° Southeast 469 540 37,000 -146 Level Oakland Center
Thu 10:51:56 AM 37.8775 -117.8400 141° Southeast 468 539 36,700 -732 Descending Oakland Center
Thu 10:52:57 AM 37.7564 -117.7150 141° Southeast 472 543 35,500 -1,024 Descending Oakland Center
Thu 10:53:59 AM 37.6542 -117.6103 141° Southeast 472 543 34,600 -839 Descending Oakland Center
Thu 10:54:30 AM 37.6139 -117.5681 140° Southeast 472 543 34,200 -984 Descending Los Angeles Center
Thu 10:55:00 AM 37.5531 -117.5064 141° Southeast 472 543 33,600 -791 Descending Oakland Center
Thu 10:56:01 AM 37.4503 -117.4017 141° Southeast 474 545 33,000 -383 Descending Oakland Center
Thu 10:56:34 AM 37.3886 -117.3386 141° Southeast 473 544 33,000  Level Los Angeles Center
Thu 10:57:36 AM 37.2861 -117.2356 141° Southeast 473 544 33,000  Level Los Angeles Center
Thu 10:58:38 AM 37.1828 -117.1303 141° Southeast 476 548 33,000  Level Los Angeles Center
Thu 10:59:40 AM 37.0783 -117.0253 141° Southeast 480 552 33,000  Level Los Angeles Center
Thu 11:00:42 AM 36.9733 -116.9200 141° Southeast 484 557 33,000  Level Los Angeles Center
Thu 11:01:44 AM 36.8683 -116.8150 141° Southeast 484 557 33,000 -1,258 Level Los Angeles Center
Thu 11:02:46 AM 36.7511 -116.6772 137° Southeast 484 557 30,400 -2,613 Descending Los Angeles Center
Thu 11:03:48 AM 36.6611 -116.5478 131° Southeast 493 567 27,600 -2,516 Descending Los Angeles Center
Thu 11:04:50 AM 36.5756 -116.4242 131° Southeast 478 550 25,200 -2,419 Descending Los Angeles Center
Thu 11:05:52 AM 36.4858 -116.2989 132° Southeast 462 532 22,600 -2,419 Descending Los Angeles Center
Thu 11:06:54 AM 36.3994 -116.1747 131° Southeast 450 518 20,200 -2,291 Descending Los Angeles Center
Thu 11:07:42 AM 36.3375 -116.0922 133° Southeast 433 498 18,400 -2,190 Descending Los Angeles Center
Thu 11:07:57 AM 36.3225 -116.0675 127° Southeast 421 484 17,900 -1,869 Descending Los Angeles Center
Thu 11:08:43 AM 36.2639 -115.9881 132° Southeast 410 472 16,500 -1,548 Descending Los Angeles Center
Thu 11:08:59 AM 36.2411 -115.9564 132° Southeast 407 468 16,300 -492 Descending Los Angeles Center
Thu 11:09:44 AM 36.1928 -115.8750 126° Southeast 386 444 16,000 -290 Descending Los Angeles Center
Thu 11:10:01 AM 36.1822 -115.8472 115° Southeast 387 445 16,000 -800 Level Los Angeles Center
Thu 11:10:44 AM 36.1539 -115.7519 110° East 380 437 15,200 -1,355 Descending Los Angeles Center
Thu 11:11:03 AM 36.1414 -115.7156 113° Southeast 381 438 14,600 -1,967 Descending Los Angeles Center
Thu 11:11:45 AM 36.1139 -115.6344 113° Southeast 371 427 13,200 -2,032 Descending Los Angeles Center
Thu 11:12:05 AM 36.1028 -115.5994 111° Southeast 370 426 12,500 -1,475 Descending Los Angeles Center
Thu 11:12:46 AM 36.0789 -115.5211 111° Southeast 354 407 11,700 -968 Descending Los Angeles Center
Thu 11:13:07 AM 36.0653 -115.4822 113° Southeast 340 391 11,500 -590 Descending Los Angeles Center
Thu 11:13:47 AM 36.0458 -115.4175 110° East 293 337 11,100 -484 Descending Los Angeles Center
Thu 11:14:09 AM 36.0356 -115.3892 114° Southeast 292 336 11,000 -492 Descending Los Angeles Center
Thu 11:14:48 AM 36.0286 -115.3275 98° East 261 300 10,600 -774 Descending Los Angeles Center
Thu 11:15:11 AM 36.0250 -115.2908 97° East 272 313 10,200 -1,180 Descending Los Angeles Center
Thu 11:15:49 AM 36.0219 -115.2367 94° East 257 296 9,400 -1,161 Descending Los Angeles Center
Thu 11:16:13 AM 36.0192 -115.2033 96° East 261 300 9,000 -984 Descending Los Angeles Center
Thu 11:16:50 AM 36.0147 -115.1539 96° East 249 287 8,400 -774 Descending Los Angeles Center
Thu 11:17:15 AM 36.0133 -115.1153 93° East 245 282 8,200 -500 Descending Los Angeles Center
Thu 11:17:50 AM 36.0100 -115.0731 96° East 207 238 7,900 -667 Descending Los Angeles Center
Thu 11:18:18 AM 36.0083 -115.0450 94° East 211 243 7,500 -1,180 Descending Los Angeles Center
Thu 11:18:51 AM 36.0061 -115.0053 94° East 192 221 6,700 -1,258 Descending Los Angeles Center
Thu 11:19:20 AM 36.0086 -114.9733 84° East 201 231 6,200 -1,082 Descending Los Angeles Center
Thu 11:19:52 AM 36.0347 -114.9689 North 199 229 5,600 -1,065 Descending Los Angeles Center
Thu 11:20:22 AM 36.0594 -114.9714 355° North 189 217 5,100 -1,522 Descending Los Angeles Center
Thu 11:20:59 AM 36.0719 -115.0100 292° West 194 223 3,900 -1,619 Descending Los Angeles Center
Thu 11:21:25 AM 36.0736 -115.0328 275° West 188 216 3,400 -885 Descending Los Angeles Center
Thu 11:22:00 AM 36.0736 -115.0678 270° West 171 197 3,000 -787 Descending Los Angeles Center
Thu 11:22:26 AM 36.0736 -115.0900 270° West 171 197 2,600 -682 Descending Los Angeles Center
Thu 11:23:28 AM 36.0728 -115.1469 269° West 156 180 2,000 -581 Descending Los Angeles Center
Thu 11:25:00 AM 36.0667 -115.1500 270° West  Level FlightAware Approximate

Login

Don't have an account? Register now (free) for customized features, flight alerts, and more!